Taasinge Maersk — OUSX2 — position and weather

sailwx.info

Track history (hours):
 
Tides and Currents Weather Stations Pressure Air Temp Water Temp Dewpoint Dewpoint Depression Visibility Wind Speed Wind Dir Waves Ship Positions

Taasinge Maersk

Last reported at 2015-Apr-19 08:04 UTC. Time now 2015-May-05 13:15 UTC.
Position N 07°60' W 014°32'.
Warning: this ship's position is 16 days out of date.

Length 191 m; draft 8 m.

Type: Cargo ship. MMSI: 220157000.

Date/timePositionNaut miles runAvg speedWind from/ knotsBaromVisibWave heightAir tempDewpointWater temp
2015-Apr-19 08:04N 07°60' W 014°32'611.8
2015-Apr-19 07:33N 08°04' W 014°36'2411.8
2015-Apr-19 05:33N 08°19' W 014°55'1211.9
2015-Apr-19 04:34N 08°26' W 015°04'1212.1
2015-Apr-19 03:34N 08°34' W 015°14'1212.1
2015-Apr-19 02:34N 08°41' W 015°24'1211.7
2015-Apr-19 01:33N 08°46' W 015°35'9 8.9
2015-Apr-19 00:34N 08°53' W 015°40'1212.5
2015-Apr-18 23:34N 09°01' W 015°50'1312.5
2015-Apr-18 22:33N 09°10' W 015°59'1212.1
2015-Apr-18 21:32N 09°18' W 016°08'1611.7
2015-Apr-18 20:09N 09°28' W 016°21'711.4
2015-Apr-18 19:30N 09°33' W 016°27'  
2015-Apr-12 12:07N 35°53' W 006°00'2111.7
2015-Apr-12 10:20N 35°57' W 005°35'911.2
2015-Apr-12 09:33N 36°01' W 005°25'7 1.0
2015-Apr-12 02:18N 36°08' W 005°25'1 0.1
2015-Apr-11 15:11N 36°08' W 005°26'0 0.0
2015-Apr-11 14:32N 36°08' W 005°26'0 0.0
2015-Apr-11 13:15N 36°08' W 005°26'0 0.0
2015-Apr-11 12:33N 36°08' W 005°26'0 0.0
2015-Apr-11 08:30N 36°08' W 005°26'0 0.0
2015-Apr-11 07:27N 36°08' W 005°26'0 0.0
2015-Apr-11 06:14N 36°08' W 005°26'0 0.0
2015-Apr-11 05:32N 36°08' W 005°26'0 0.0
2015-Apr-11 04:32N 36°08' W 005°26'0 0.0
2015-Apr-11 03:33N 36°08' W 005°26'0 0.0
2015-Apr-11 02:30N 36°08' W 005°26'0 0.0
2015-Apr-11 01:33N 36°08' W 005°26'0 0.0
2015-Apr-11 00:32N 36°08' W 005°26'0 0.0
2015-Apr-10 23:33N 36°08' W 005°26'0 0.0
2015-Apr-10 22:33N 36°08' W 005°26'0 0.0
2015-Apr-10 21:33N 36°08' W 005°26'0 0.0
2015-Apr-10 20:32N 36°08' W 005°26'0 0.0
2015-Apr-10 19:20N 36°08' W 005°26'0 0.0
2015-Apr-10 18:32N 36°08' W 005°26'0 0.0
2015-Apr-10 13:30N 36°08' W 005°26'0 0.0
2015-Apr-10 12:33N 36°08' W 005°26'0 0.0
2015-Apr-10 11:12N 36°08' W 005°26'0 0.0
2015-Apr-10 10:33N 36°08' W 005°26'0 0.0
2015-Apr-10 09:33N 36°08' W 005°26'0 0.0
2015-Apr-10 08:32N 36°08' W 005°26'0 0.0
2015-Apr-10 07:29N 36°08' W 005°26'0 0.0
2015-Apr-10 06:30N 36°08' W 005°26'0 0.0
2015-Apr-10 05:24N 36°08' W 005°26'0 0.0
2015-Apr-10 04:33N 36°08' W 005°26'2 1.8
2015-Apr-10 03:33N 36°09' W 005°24'5 5.4
2015-Apr-10 02:33N 36°04' W 005°22'1 0.6
2015-Apr-10 01:33N 36°04' W 005°21'5 4.6
2015-Apr-10 00:33N 36°03' W 005°15'5 0.4
2015-Apr-09 10:22N 36°02' W 005°09'7 8.5
2015-Apr-09 09:33N 35°59' W 005°17'10 8.5
2015-Apr-09 08:23N 35°56' W 005°28'  
Track history (hours):
 
Tides and Currents Weather Stations Pressure Air Temp Water Temp Dewpoint Dewpoint Depression Visibility Wind Speed Wind Dir Waves Ship Positions

Taasinge Maersk

Last reported at 2015-Apr-19 08:04 UTC. Time now 2015-May-05 13:15 UTC.
Position N 07°60' W 014°32'.
Warning: this ship's position is 16 days out of date.

Length 191 m; draft 8 m.

Type: Cargo ship. MMSI: 220157000.

Date/timePositionNaut miles runAvg speedWind from/ knotsBaromVisibWave heightAir tempDewpointWater temp
2015-Apr-19 08:04N 07°60' W 014°32'611.8
2015-Apr-19 07:33N 08°04' W 014°36'2411.8
2015-Apr-19 05:33N 08°19' W 014°55'1211.9
2015-Apr-19 04:34N 08°26' W 015°04'1212.1
2015-Apr-19 03:34N 08°34' W 015°14'1212.1
2015-Apr-19 02:34N 08°41' W 015°24'1211.7
2015-Apr-19 01:33N 08°46' W 015°35'9 8.9
2015-Apr-19 00:34N 08°53' W 015°40'1212.5
2015-Apr-18 23:34N 09°01' W 015°50'1312.5
2015-Apr-18 22:33N 09°10' W 015°59'1212.1
2015-Apr-18 21:32N 09°18' W 016°08'1611.7
2015-Apr-18 20:09N 09°28' W 016°21'711.4
2015-Apr-18 19:30N 09°33' W 016°27'  
2015-Apr-12 12:07N 35°53' W 006°00'2111.7
2015-Apr-12 10:20N 35°57' W 005°35'911.2
2015-Apr-12 09:33N 36°01' W 005°25'7 1.0
2015-Apr-12 02:18N 36°08' W 005°25'1 0.1
2015-Apr-11 15:11N 36°08' W 005°26'0 0.0
2015-Apr-11 14:32N 36°08' W 005°26'0 0.0
2015-Apr-11 13:15N 36°08' W 005°26'0 0.0
2015-Apr-11 12:33N 36°08' W 005°26'0 0.0
2015-Apr-11 08:30N 36°08' W 005°26'0 0.0
2015-Apr-11 07:27N 36°08' W 005°26'0 0.0
2015-Apr-11 06:14N 36°08' W 005°26'0 0.0
2015-Apr-11 05:32N 36°08' W 005°26'0 0.0
2015-Apr-11 04:32N 36°08' W 005°26'0 0.0
2015-Apr-11 03:33N 36°08' W 005°26'0 0.0
2015-Apr-11 02:30N 36°08' W 005°26'0 0.0
2015-Apr-11 01:33N 36°08' W 005°26'0 0.0
2015-Apr-11 00:32N 36°08' W 005°26'0 0.0
2015-Apr-10 23:33N 36°08' W 005°26'0 0.0
2015-Apr-10 22:33N 36°08' W 005°26'0 0.0
2015-Apr-10 21:33N 36°08' W 005°26'0 0.0
2015-Apr-10 20:32N 36°08' W 005°26'0 0.0
2015-Apr-10 19:20N 36°08' W 005°26'0 0.0
2015-Apr-10 18:32N 36°08' W 005°26'0 0.0
2015-Apr-10 13:30N 36°08' W 005°26'0 0.0
2015-Apr-10 12:33N 36°08' W 005°26'0 0.0
2015-Apr-10 11:12N 36°08' W 005°26'0 0.0
2015-Apr-10 10:33N 36°08' W 005°26'0 0.0
2015-Apr-10 09:33N 36°08' W 005°26'0 0.0
2015-Apr-10 08:32N 36°08' W 005°26'0 0.0
2015-Apr-10 07:29N 36°08' W 005°26'0 0.0
2015-Apr-10 06:30N 36°08' W 005°26'0 0.0
2015-Apr-10 05:24N 36°08' W 005°26'0 0.0
2015-Apr-10 04:33N 36°08' W 005°26'2 1.8
2015-Apr-10 03:33N 36°09' W 005°24'5 5.4
2015-Apr-10 02:33N 36°04' W 005°22'1 0.6
2015-Apr-10 01:33N 36°04' W 005°21'5 4.6
2015-Apr-10 00:33N 36°03' W 005°15'5 0.4
2015-Apr-09 10:22N 36°02' W 005°09'7 8.5
2015-Apr-09 09:33N 35°59' W 005°17'10 8.5
2015-Apr-09 08:23N 35°56' W 005°28'  

Dump ship's entire track history